createdAt,value
2022-10-11T00:22:50.148Z,2.03
2022-10-11T00:25:24.048Z,1.87
2022-10-11T00:27:58.984Z,1.70
2022-10-11T00:30:34.223Z,1.70
2022-10-11T00:33:08.278Z,1.73
2022-10-11T00:35:43.334Z,1.73
2022-10-11T00:38:19.753Z,2.03
2022-10-11T00:40:54.941Z,1.67
2022-10-11T00:43:34.900Z,1.57
2022-10-11T00:46:30.442Z,1.90
2022-10-11T00:49:36.811Z,1.60
2022-10-11T00:52:22.124Z,1.47
2022-10-11T00:55:05.126Z,1.70
2022-10-11T00:57:46.345Z,1.93
2022-10-11T01:00:21.555Z,1.63
2022-10-11T01:03:13.844Z,1.53
2022-10-11T01:05:47.618Z,2.10
2022-10-11T01:08:21.196Z,1.97
2022-10-11T01:10:58.717Z,2.10
2022-10-11T01:13:50.101Z,2.10
2022-10-11T01:16:32.213Z,1.60
2022-10-11T01:19:34.053Z,2.17
2022-10-11T01:22:41.552Z,1.90
2022-10-11T01:25:34.277Z,2.27
2022-10-11T01:28:42.565Z,1.87
2022-10-11T01:31:27.580Z,2.00
2022-10-11T01:34:08.338Z,2.10
2022-10-11T01:36:51.219Z,2.07
2022-10-11T01:39:35.824Z,2.50
2022-10-11T01:42:15.080Z,2.10
2022-10-11T01:44:55.467Z,2.27
2022-10-11T01:47:31.901Z,1.90
2022-10-11T01:50:08.098Z,2.70
2022-10-11T01:52:46.272Z,2.10
2022-10-11T01:55:36.358Z,1.70
2022-10-11T01:58:29.669Z,2.57
2022-10-11T02:01:22.582Z,2.13
2022-10-11T02:04:08.902Z,1.80
2022-10-11T02:07:02.384Z,2.33
2022-10-11T02:09:44.438Z,2.13
2022-10-11T02:12:33.038Z,2.00
2022-10-11T02:15:14.635Z,2.00
2022-10-11T02:17:56.139Z,2.07
2022-10-11T02:20:36.068Z,1.87
2022-10-11T02:23:16.521Z,2.20
2022-10-11T02:25:55.635Z,2.00
2022-10-11T02:28:36.418Z,1.70
2022-10-11T02:31:13.573Z,1.83
2022-10-11T02:33:54.106Z,2.30
2022-10-11T02:36:44.054Z,2.17
2022-10-11T02:39:27.379Z,2.17
2022-10-11T02:42:08.100Z,2.10
2022-10-11T02:45:17.507Z,2.23
2022-10-11T02:47:51.705Z,1.83
2022-10-11T02:50:25.586Z,1.97
2022-10-11T02:53:01.540Z,1.97
2022-10-11T02:55:35.698Z,1.70
2022-10-11T02:58:10.777Z,1.93
2022-10-11T03:00:44.979Z,2.13
2022-10-11T03:03:26.053Z,2.33
2022-10-11T03:06:02.863Z,2.20
2022-10-11T03:08:38.868Z,1.93
2022-10-11T03:11:14.263Z,2.13
2022-10-11T03:13:47.836Z,2.53
2022-10-11T03:16:21.633Z,2.60
2022-10-11T03:18:55.446Z,2.40
2022-10-11T03:21:29.400Z,2.57
2022-10-11T03:24:06.806Z,2.60
2022-10-11T03:26:41.262Z,2.40
2022-10-11T03:29:17.562Z,2.40
2022-10-11T03:31:52.007Z,3.07
2022-10-11T03:34:27.323Z,2.30
2022-10-11T03:37:00.920Z,3.07
2022-10-11T03:39:37.022Z,2.70
2022-10-11T03:42:10.528Z,2.97
2022-10-11T03:44:44.172Z,2.83
2022-10-11T03:47:18.396Z,2.67
2022-10-11T03:50:05.779Z,2.83
2022-10-11T03:52:40.205Z,2.73
2022-10-11T03:55:15.327Z,2.83
2022-10-11T03:57:48.959Z,2.87
2022-10-11T04:00:22.951Z,3.17
2022-10-11T04:02:57.876Z,2.57
2022-10-11T04:05:33.958Z,2.80
2022-10-11T04:08:16.599Z,2.73
2022-10-11T04:10:54.782Z,3.17
2022-10-11T04:13:28.103Z,2.80
2022-10-11T04:16:01.592Z,3.27
2022-10-11T04:18:35.675Z,2.90
2022-10-11T04:21:09.915Z,2.90
2022-10-11T04:23:45.439Z,3.03
2022-10-11T04:26:21.786Z,2.70
2022-10-11T04:28:56.048Z,2.80
2022-10-11T04:31:29.982Z,3.10
2022-10-11T04:34:03.929Z,2.57
2022-10-11T04:36:39.225Z,3.23
2022-10-11T04:39:14.949Z,3.50
2022-10-11T04:41:52.476Z,2.93
2022-10-11T04:44:26.312Z,3.00
2022-10-11T04:47:00.040Z,3.10
2022-10-11T04:49:33.657Z,3.20
2022-10-11T04:52:07.355Z,3.07
2022-10-11T04:54:41.065Z,3.00
2022-10-11T04:57:15.810Z,3.13
2022-10-11T04:59:50.442Z,3.40
2022-10-11T05:02:24.780Z,3.20
2022-10-11T05:04:58.733Z,3.60
2022-10-11T05:07:32.570Z,2.97
2022-10-11T05:10:07.657Z,3.47
2022-10-11T05:12:44.415Z,3.00
2022-10-11T05:15:18.045Z,3.30
2022-10-11T05:17:52.848Z,3.40
2022-10-11T05:20:26.690Z,3.30
2022-10-11T05:23:01.890Z,3.33
2022-10-11T05:25:36.144Z,3.40
2022-10-11T05:28:12.014Z,3.80
2022-10-11T05:30:46.463Z,3.43
2022-10-11T05:33:21.004Z,3.60
2022-10-11T05:35:54.466Z,3.03
2022-10-11T05:38:28.069Z,3.37
2022-10-11T05:41:02.731Z,3.20
2022-10-11T05:43:38.451Z,3.70
2022-10-11T05:46:12.395Z,3.60
2022-10-11T05:48:47.339Z,3.83
2022-10-11T05:51:20.843Z,3.97
2022-10-11T05:53:55.035Z,3.70
2022-10-11T05:56:28.627Z,4.77
2022-10-11T05:59:03.464Z,4.27
2022-10-11T06:01:37.167Z,3.53
2022-10-11T06:04:11.842Z,3.57
2022-10-11T06:06:45.408Z,3.63
2022-10-11T06:09:19.435Z,3.37
2022-10-11T06:11:52.791Z,3.70
2022-10-11T06:14:30.035Z,4.10
2022-10-11T06:17:04.705Z,3.93
2022-10-11T06:19:38.136Z,4.07
2022-10-11T06:22:13.376Z,3.70
2022-10-11T06:24:51.544Z,3.80
2022-10-11T06:27:25.521Z,3.70
2022-10-11T06:30:01.120Z,3.93
2022-10-11T06:32:44.954Z,4.50
2022-10-11T06:35:19.134Z,4.37
2022-10-11T06:37:53.924Z,3.83
2022-10-11T06:40:31.840Z,4.10
2022-10-11T06:43:06.814Z,4.07
2022-10-11T06:45:41.718Z,4.27
2022-10-11T06:48:17.155Z,4.00
2022-10-11T06:51:00.340Z,4.30
2022-10-11T06:53:34.649Z,4.57
2022-10-11T06:56:12.143Z,3.87
2022-10-11T06:58:52.165Z,3.37
2022-10-11T07:01:28.604Z,3.90
2022-10-11T07:04:03.097Z,4.43
2022-10-11T07:06:48.825Z,4.03
2022-10-11T07:09:22.494Z,4.17
2022-10-11T07:11:55.909Z,4.77
2022-10-11T07:14:29.539Z,4.80
2022-10-11T07:17:04.865Z,5.20
2022-10-11T07:19:38.268Z,5.27
2022-10-11T07:22:11.828Z,5.10
2022-10-11T07:24:45.512Z,5.70
2022-10-11T07:27:19.218Z,5.90
2022-10-11T07:29:52.554Z,5.93
2022-10-11T07:32:28.332Z,5.60
2022-10-11T07:35:01.850Z,5.37
2022-10-11T07:37:37.173Z,5.73
2022-10-11T07:40:11.902Z,5.67
2022-10-11T07:42:45.203Z,6.00
2022-10-11T07:45:18.697Z,6.17
2022-10-11T07:47:53.652Z,5.57
2022-10-11T07:50:27.930Z,6.47
2022-10-11T07:53:01.573Z,5.93
2022-10-11T07:55:43.982Z,6.07
2022-10-11T07:58:18.875Z,5.47
2022-10-11T08:00:55.099Z,5.53
2022-10-11T08:03:30.246Z,5.47
2022-10-11T08:06:08.253Z,4.77
2022-10-11T08:08:41.825Z,5.33
2022-10-11T08:11:23.260Z,5.23
2022-10-11T08:13:59.278Z,5.63
2022-10-11T08:16:33.020Z,5.67
2022-10-11T08:19:08.694Z,4.93
2022-10-11T08:21:42.685Z,5.07
2022-10-11T08:24:20.626Z,5.47
2022-10-11T08:26:54.848Z,5.10
2022-10-11T08:29:28.185Z,4.40
2022-10-11T08:32:01.847Z,5.40
2022-10-11T08:34:36.776Z,4.37
2022-10-11T08:37:17.819Z,4.87
2022-10-11T08:39:51.540Z,4.33
2022-10-11T08:42:36.592Z,4.17
2022-10-11T08:45:38.437Z,3.90
2022-10-11T08:48:19.387Z,3.80
2022-10-11T08:51:06.405Z,3.27
2022-10-11T08:53:51.626Z,3.03
2022-10-11T08:56:29.304Z,3.97
2022-10-11T08:59:16.070Z,3.07
2022-10-11T09:01:59.412Z,2.97
2022-10-11T09:04:33.576Z,2.73
2022-10-11T09:07:28.541Z,2.73
2022-10-11T09:10:42.576Z,2.27
2022-10-11T09:13:42.133Z,2.53
2022-10-11T09:16:33.654Z,3.10
2022-10-11T09:19:51.193Z,2.27
2022-10-11T09:22:46.200Z,2.90
2022-10-11T09:25:30.446Z,2.30
2022-10-11T09:28:20.373Z,2.07
2022-10-11T09:30:59.252Z,2.17
2022-10-11T09:33:36.505Z,2.30
2022-10-11T09:36:23.651Z,2.60
2022-10-11T09:39:11.610Z,1.90
2022-10-11T09:41:54.765Z,2.00
2022-10-11T09:44:31.000Z,2.47
2022-10-11T09:47:06.192Z,2.30
2022-10-11T09:49:43.941Z,2.00
2022-10-11T09:52:20.490Z,2.17
2022-10-11T09:54:59.867Z,1.90
2022-10-11T09:57:37.003Z,1.40
2022-10-11T10:00:24.032Z,2.20
2022-10-11T10:03:01.940Z,1.60
2022-10-11T10:05:38.564Z,1.33
2022-10-11T10:08:38.684Z,1.33
2022-10-11T10:11:16.150Z,1.77
2022-10-11T10:13:53.203Z,1.50
2022-10-11T10:16:29.857Z,1.40
2022-10-11T10:19:07.288Z,1.57
2022-10-11T10:21:51.846Z,1.73
2022-10-11T10:24:39.120Z,1.77
2022-10-11T10:27:23.622Z,1.40
2022-10-11T10:30:21.613Z,1.30
2022-10-11T10:33:02.222Z,1.50
2022-10-11T10:35:42.365Z,1.23
2022-10-11T10:38:28.042Z,1.33
2022-10-11T10:41:08.031Z,1.50
2022-10-11T10:43:47.067Z,1.10
2022-10-11T10:46:42.555Z,1.40
2022-10-11T10:49:52.383Z,1.20
2022-10-11T10:53:11.862Z,1.10
2022-10-11T10:55:52.761Z,1.10
2022-10-11T10:58:52.768Z,1.60
2022-10-11T11:01:32.065Z,1.57
2022-10-11T11:04:20.977Z,1.40
2022-10-11T11:07:00.850Z,1.40
2022-10-11T11:09:51.605Z,1.37
2022-10-11T11:12:46.235Z,1.70
2022-10-11T11:15:33.105Z,1.50
2022-10-11T11:18:31.207Z,1.50
2022-10-11T11:21:26.838Z,1.43
2022-10-11T11:24:13.052Z,1.33
2022-10-11T11:26:59.322Z,1.37
2022-10-11T11:29:55.337Z,1.70
2022-10-11T11:32:45.930Z,1.50
2022-10-11T11:35:32.413Z,1.30
2022-10-11T11:38:17.877Z,1.43
2022-10-11T11:40:57.599Z,1.40
2022-10-11T11:43:39.447Z,1.40
2022-10-11T11:46:22.022Z,1.17
2022-10-11T11:49:03.880Z,1.90
2022-10-11T11:51:46.310Z,1.87
2022-10-11T11:54:42.141Z,1.43
2022-10-11T11:57:29.861Z,1.40
2022-10-11T12:00:14.034Z,1.50
2022-10-11T12:02:54.662Z,1.70
2022-10-11T12:05:45.816Z,2.03
2022-10-11T12:08:32.051Z,1.57
2022-10-11T12:11:06.637Z,1.57
2022-10-11T12:13:43.296Z,1.57
2022-10-11T12:16:20.629Z,1.80
2022-10-11T12:19:03.397Z,1.80
2022-10-11T12:21:40.944Z,1.43
2022-10-11T12:24:28.022Z,1.80
2022-10-11T12:27:40.793Z,1.70
2022-10-11T12:30:53.500Z,1.63
2022-10-11T12:33:53.814Z,1.70
2022-10-11T12:36:41.078Z,1.60
2022-10-11T12:39:53.763Z,1.80
2022-10-11T12:42:32.312Z,1.40
2022-10-11T12:45:34.895Z,1.87
2022-10-11T12:48:40.732Z,1.50
2022-10-11T12:51:34.233Z,1.70
2022-10-11T12:54:35.994Z,1.40
2022-10-11T12:57:51.452Z,0.93
2022-10-11T13:00:31.013Z,1.30
2022-10-11T13:03:28.361Z,1.13
2022-10-11T13:06:23.347Z,1.37
2022-10-11T13:09:04.670Z,1.90
2022-10-11T13:11:49.517Z,1.60
2022-10-11T13:14:26.151Z,2.53
2022-10-11T13:17:15.651Z,2.10
2022-10-11T13:20:01.802Z,1.80
2022-10-11T13:22:40.597Z,1.33
2022-10-11T13:25:25.397Z,1.57
2022-10-11T13:28:12.163Z,1.80
2022-10-11T13:30:50.502Z,1.53
2022-10-11T13:33:32.315Z,1.53
2022-10-11T13:36:14.755Z,1.40
2022-10-11T13:39:11.700Z,1.40
2022-10-11T13:41:47.124Z,1.53
2022-10-11T13:44:29.810Z,1.70
2022-10-11T13:47:04.481Z,1.40
2022-10-11T13:49:40.522Z,1.50
2022-10-11T13:52:24.648Z,1.30
2022-10-11T13:55:11.535Z,1.37
2022-10-11T13:57:51.920Z,1.30
2022-10-11T14:00:35.094Z,1.00
2022-10-11T14:03:38.970Z,1.27
2022-10-11T14:06:15.022Z,1.10
2022-10-11T14:08:52.911Z,1.17
2022-10-11T14:11:39.785Z,1.40
2022-10-11T14:14:43.822Z,1.17
2022-10-11T14:17:21.072Z,0.83
2022-10-11T14:20:15.507Z,1.50
2022-10-11T14:22:53.338Z,1.50
2022-10-11T14:25:27.194Z,1.40
2022-10-11T14:28:01.241Z,1.57
2022-10-11T14:30:35.058Z,1.10
2022-10-11T14:33:09.852Z,1.20
2022-10-11T14:35:43.329Z,1.27
2022-10-11T14:38:16.764Z,1.40
2022-10-11T14:40:54.852Z,1.27
2022-10-11T14:43:28.673Z,1.57
2022-10-11T14:46:02.983Z,1.30
2022-10-11T14:48:54.429Z,1.23
2022-10-11T14:51:35.720Z,1.10
2022-10-11T14:54:11.664Z,1.17
2022-10-11T14:56:46.523Z,1.13
2022-10-11T14:59:24.636Z,1.20
2022-10-11T15:01:58.440Z,1.23
2022-10-11T15:04:34.707Z,1.50
2022-10-11T15:07:08.536Z,1.17
2022-10-11T15:09:42.859Z,1.20
2022-10-11T15:12:18.620Z,1.20
2022-10-11T15:14:56.491Z,0.87
2022-10-11T15:17:31.537Z,1.13
2022-10-11T15:20:13.202Z,1.10
2022-10-11T15:22:48.735Z,1.10
2022-10-11T15:25:25.193Z,1.17
2022-10-11T15:27:59.513Z,1.10
2022-10-11T15:30:40.933Z,1.70
2022-10-11T15:33:15.929Z,1.37
2022-10-11T15:35:51.263Z,1.40
2022-10-11T15:38:27.229Z,1.20
2022-10-11T15:41:02.095Z,1.00
2022-10-11T15:43:35.721Z,0.93
2022-10-11T15:46:14.265Z,1.10
2022-10-11T15:48:48.656Z,1.20
2022-10-11T15:51:23.619Z,1.10
2022-10-11T15:53:57.198Z,1.30
2022-10-11T15:56:36.528Z,0.90
2022-10-11T15:59:13.142Z,1.00
2022-10-11T16:01:48.792Z,0.90
2022-10-11T16:04:24.723Z,1.00
2022-10-11T16:07:03.089Z,1.00
2022-10-11T16:09:37.130Z,1.20
2022-10-11T16:12:12.301Z,1.20
2022-10-11T16:14:47.295Z,1.00
2022-10-11T16:17:21.884Z,1.13
2022-10-11T16:19:55.794Z,1.50
2022-10-11T16:22:31.215Z,3.03
2022-10-11T16:25:05.814Z,4.57
2022-10-11T16:27:39.504Z,2.40
2022-10-11T16:30:15.937Z,1.80
2022-10-11T16:32:49.934Z,1.53
2022-10-11T16:35:28.930Z,1.63
2022-10-11T16:38:06.548Z,1.30
2022-10-11T16:40:41.160Z,1.40
2022-10-11T16:43:15.566Z,1.00
2022-10-11T16:45:48.868Z,1.30
2022-10-11T16:48:22.610Z,1.43
2022-10-11T16:50:55.862Z,1.70
2022-10-11T16:53:31.137Z,1.37
2022-10-11T16:56:08.118Z,1.50
2022-10-11T16:58:43.391Z,1.60
2022-10-11T17:01:18.418Z,1.33
2022-10-11T17:03:53.195Z,1.70
2022-10-11T17:06:28.800Z,1.60
2022-10-11T17:09:05.232Z,1.40
2022-10-11T17:11:40.742Z,1.60
2022-10-11T17:14:15.473Z,1.20
2022-10-11T17:16:49.286Z,1.30
2022-10-11T17:19:22.993Z,1.10
2022-10-11T17:21:56.416Z,1.40
2022-10-11T17:24:33.026Z,1.53
2022-10-11T17:27:07.770Z,1.50
2022-10-11T17:29:41.925Z,1.50
2022-10-11T17:32:16.739Z,1.80
2022-10-11T17:34:50.440Z,1.43
2022-10-11T17:37:24.009Z,1.67
2022-10-11T17:39:58.851Z,1.70
2022-10-11T17:42:32.173Z,1.60
2022-10-11T17:45:07.678Z,1.97
2022-10-11T17:47:41.027Z,2.33
2022-10-11T17:50:14.949Z,2.20
2022-10-11T17:52:48.965Z,2.23
2022-10-11T17:55:23.808Z,2.30
2022-10-11T17:57:58.135Z,2.50
2022-10-11T18:00:36.261Z,2.60
2022-10-11T18:03:11.440Z,2.40
2022-10-11T18:05:45.395Z,2.33
2022-10-11T18:08:19.746Z,2.30
2022-10-11T18:10:54.853Z,2.60
2022-10-11T18:13:28.364Z,3.07
2022-10-11T18:16:01.733Z,2.80
2022-10-11T18:18:35.199Z,2.83
2022-10-11T18:21:08.641Z,2.47
2022-10-11T18:23:42.358Z,3.03
2022-10-11T18:26:20.120Z,2.70
2022-10-11T18:28:55.779Z,2.90
2022-10-11T18:31:33.930Z,3.27
2022-10-11T18:34:10.790Z,3.07
2022-10-11T18:36:44.197Z,3.20
2022-10-11T18:39:17.450Z,2.93
2022-10-11T18:41:52.117Z,3.17
2022-10-11T18:44:25.406Z,2.67
2022-10-11T18:46:59.709Z,3.20
2022-10-11T18:49:33.544Z,3.20
2022-10-11T18:52:08.116Z,3.47
2022-10-11T18:54:41.751Z,3.47
2022-10-11T18:57:16.385Z,3.87
2022-10-11T18:59:49.627Z,3.87
2022-10-11T19:02:25.691Z,4.23
2022-10-11T19:04:59.464Z,3.47
2022-10-11T19:07:32.742Z,3.60
2022-10-11T19:10:07.457Z,3.17
2022-10-11T19:12:42.142Z,3.80
2022-10-11T19:15:16.597Z,3.53
2022-10-11T19:17:49.952Z,3.10
2022-10-11T19:20:23.243Z,2.93
2022-10-11T19:22:56.728Z,3.37
2022-10-11T19:25:30.076Z,3.90
2022-10-11T19:28:06.843Z,4.00
2022-10-11T19:30:40.223Z,3.63
2022-10-11T19:33:14.016Z,4.60
2022-10-11T19:35:55.978Z,4.17
2022-10-11T19:38:31.225Z,4.27
2022-10-11T19:41:33.736Z,3.97
2022-10-11T19:44:09.068Z,3.07
2022-10-11T19:46:52.031Z,4.47
2022-10-11T19:49:26.436Z,4.03
2022-10-11T19:52:01.278Z,3.57
2022-10-11T19:54:34.762Z,3.77
2022-10-11T19:57:08.775Z,3.77
2022-10-11T19:59:45.094Z,4.40
2022-10-11T20:02:18.984Z,4.27
2022-10-11T20:04:53.322Z,4.43
2022-10-11T20:07:27.938Z,4.10
2022-10-11T20:10:01.553Z,4.03
2022-10-11T20:12:35.589Z,4.03
2022-10-11T20:15:12.599Z,4.03
2022-10-11T20:17:51.771Z,3.27
2022-10-11T20:20:25.147Z,4.10
2022-10-11T20:22:58.464Z,3.70
2022-10-11T20:25:32.874Z,3.50
2022-10-11T20:28:06.404Z,3.67
2022-10-11T20:30:44.373Z,3.23
2022-10-11T20:33:17.909Z,3.43
2022-10-11T20:36:03.743Z,2.97
2022-10-11T20:38:40.841Z,3.77
2022-10-11T20:41:18.009Z,3.57
2022-10-11T20:43:55.420Z,3.80
2022-10-11T20:46:33.527Z,3.53
2022-10-11T20:49:10.850Z,2.87
2022-10-11T20:51:44.395Z,2.90
2022-10-11T20:54:17.946Z,2.97
2022-10-11T20:56:51.439Z,3.10
2022-10-11T20:59:24.863Z,3.30
2022-10-11T21:01:59.641Z,2.80
2022-10-11T21:04:33.398Z,2.90
2022-10-11T21:07:06.975Z,3.00
2022-10-11T21:09:40.932Z,3.33
2022-10-11T21:12:14.421Z,3.27
2022-10-11T21:14:47.865Z,3.73
2022-10-11T21:17:22.756Z,4.37
2022-10-11T21:19:56.423Z,5.17
2022-10-11T21:22:29.633Z,4.93
2022-10-11T21:25:02.886Z,5.60
2022-10-11T21:27:37.096Z,5.00
2022-10-11T21:30:11.823Z,4.33
2022-10-11T21:32:46.774Z,4.93
2022-10-11T21:35:20.304Z,5.17
2022-10-11T21:37:55.124Z,4.80
2022-10-11T21:40:28.909Z,4.37
2022-10-11T21:43:05.236Z,4.40
2022-10-11T21:45:39.305Z,4.57
2022-10-11T21:48:14.731Z,4.10
2022-10-11T21:50:54.566Z,4.10
2022-10-11T21:53:27.762Z,3.70
2022-10-11T21:56:03.132Z,3.43
2022-10-11T21:58:36.652Z,3.23
2022-10-11T22:01:12.038Z,3.33
2022-10-11T22:03:48.137Z,3.83
2022-10-11T22:06:21.702Z,3.40
2022-10-11T22:08:55.214Z,3.13
2022-10-11T22:11:29.062Z,2.90
2022-10-11T22:14:03.029Z,2.97
2022-10-11T22:16:36.758Z,3.40
2022-10-11T22:19:11.406Z,2.77
2022-10-11T22:21:45.439Z,3.00
2022-10-11T22:24:19.001Z,2.67
2022-10-11T22:26:52.433Z,2.93
2022-10-11T22:29:27.692Z,3.10
2022-10-11T22:32:03.876Z,3.13
2022-10-11T22:34:38.564Z,2.30
2022-10-11T22:37:12.386Z,2.97
2022-10-11T22:39:45.788Z,2.57
2022-10-11T22:42:21.363Z,2.60
2022-10-11T22:44:58.006Z,2.73
2022-10-11T22:47:37.673Z,2.43
2022-10-11T22:50:14.143Z,3.00
2022-10-11T22:52:47.644Z,2.97
2022-10-11T22:55:20.993Z,2.77
2022-10-11T22:57:54.925Z,3.10
2022-10-11T23:00:28.966Z,3.07
2022-10-11T23:03:02.435Z,2.63
2022-10-11T23:05:37.216Z,2.63
2022-10-11T23:08:11.046Z,2.70
2022-10-11T23:10:44.413Z,2.53
2022-10-11T23:13:17.986Z,2.80
2022-10-11T23:15:51.283Z,2.93
2022-10-11T23:18:24.509Z,2.13
2022-10-11T23:21:01.331Z,2.70
2022-10-11T23:23:35.472Z,2.43
2022-10-11T23:26:12.284Z,2.40
2022-10-11T23:28:47.632Z,3.10
2022-10-11T23:31:24.326Z,2.70
2022-10-11T23:33:57.618Z,2.07
2022-10-11T23:36:36.940Z,2.30
2022-10-11T23:39:16.573Z,2.50
2022-10-11T23:41:50.108Z,2.30
2022-10-11T23:44:23.546Z,2.63
2022-10-11T23:46:58.054Z,2.80
2022-10-11T23:49:31.606Z,2.77
2022-10-11T23:52:06.686Z,2.83
2022-10-11T23:54:40.604Z,2.27
2022-10-11T23:57:13.899Z,2.50
2022-10-11T23:59:47.101Z,2.27
